sensor_id;sensor_type;location;lat;lon;timestamp;pressure;altitude;pressure_sealevel;temperature;humidity
19884;BME280;10104;50.732;10.174;2023-04-23T00:00:25;97101.84;;;15.34;82.17
19884;BME280;10104;50.732;10.174;2023-04-23T00:02:51;97100.09;;;15.00;83.70
19884;BME280;10104;50.732;10.174;2023-04-23T00:05:14;97100.56;;;14.97;85.71
19884;BME280;10104;50.732;10.174;2023-04-23T00:07:37;97103.81;;;14.99;85.79
19884;BME280;10104;50.732;10.174;2023-04-23T00:09:59;97111.25;;;14.85;87.39
19884;BME280;10104;50.732;10.174;2023-04-23T00:12:21;97099.31;;;14.76;89.49
19884;BME280;10104;50.732;10.174;2023-04-23T00:14:43;97101.28;;;14.69;91.08
19884;BME280;10104;50.732;10.174;2023-04-23T00:17:05;97094.94;;;14.58;92.18
19884;BME280;10104;50.732;10.174;2023-04-23T00:19:26;97092.75;;;14.55;93.03
19884;BME280;10104;50.732;10.174;2023-04-23T00:21:48;97092.16;;;14.65;93.02
19884;BME280;10104;50.732;10.174;2023-04-23T00:24:09;97090.91;;;14.56;93.96
19884;BME280;10104;50.732;10.174;2023-04-23T00:26:31;97089.63;;;14.58;93.27
19884;BME280;10104;50.732;10.174;2023-04-23T00:28:52;97079.31;;;14.62;94.23
19884;BME280;10104;50.732;10.174;2023-04-23T00:31:14;97077.22;;;14.52;94.71
19884;BME280;10104;50.732;10.174;2023-04-23T00:33:36;97081.84;;;14.57;94.92
19884;BME280;10104;50.732;10.174;2023-04-23T00:35:57;97086.16;;;14.46;95.59
19884;BME280;10104;50.732;10.174;2023-04-23T00:38:19;97073.06;;;14.45;95.88
19884;BME280;10104;50.732;10.174;2023-04-23T00:40:41;97076.16;;;14.65;94.53
19884;BME280;10104;50.732;10.174;2023-04-23T00:43:03;97068.19;;;14.65;93.91
19884;BME280;10104;50.732;10.174;2023-04-23T00:45:25;97082.41;;;14.71;93.04
19884;BME280;10104;50.732;10.174;2023-04-23T00:47:47;97079.03;;;14.98;91.31
19884;BME280;10104;50.732;10.174;2023-04-23T00:50:08;97081.41;;;15.12;90.21
19884;BME280;10104;50.732;10.174;2023-04-23T00:52:30;97071.63;;;15.29;88.97
19884;BME280;10104;50.732;10.174;2023-04-23T00:54:52;97070.75;;;15.40;88.46
19884;BME280;10104;50.732;10.174;2023-04-23T00:57:13;97068.09;;;15.40;87.94
19884;BME280;10104;50.732;10.174;2023-04-23T00:59:35;97057.72;;;15.44;87.56
19884;BME280;10104;50.732;10.174;2023-04-23T01:01:56;97062.09;;;15.61;85.63
19884;BME280;10104;50.732;10.174;2023-04-23T01:04:19;97061.69;;;15.69;84.95
19884;BME280;10104;50.732;10.174;2023-04-23T01:06:43;97056.28;;;15.64;84.84
19884;BME280;10104;50.732;10.174;2023-04-23T01:09:07;97052.25;;;15.50;86.03
19884;BME280;10104;50.732;10.174;2023-04-23T01:11:31;97055.41;;;15.47;86.35
19884;BME280;10104;50.732;10.174;2023-04-23T01:13:52;97057.50;;;15.45;87.36
19884;BME280;10104;50.732;10.174;2023-04-23T01:16:13;97054.41;;;15.08;89.06
19884;BME280;10104;50.732;10.174;2023-04-23T01:18:35;97058.88;;;14.91;90.36
19884;BME280;10104;50.732;10.174;2023-04-23T01:20:57;97059.47;;;14.70;91.22
19884;BME280;10104;50.732;10.174;2023-04-23T01:23:19;97054.03;;;14.76;91.26
19884;BME280;10104;50.732;10.174;2023-04-23T01:25:41;97062.41;;;14.68;91.51
19884;BME280;10104;50.732;10.174;2023-04-23T01:28:04;97058.25;;;14.49;91.66
19884;BME280;10104;50.732;10.174;2023-04-23T01:30:27;97057.66;;;14.58;91.46
19884;BME280;10104;50.732;10.174;2023-04-23T01:32:49;97061.31;;;14.69;91.31
19884;BME280;10104;50.732;10.174;2023-04-23T01:35:10;97064.81;;;14.70;91.64
19884;BME280;10104;50.732;10.174;2023-04-23T01:37:34;97062.97;;;14.58;92.47
19884;BME280;10104;50.732;10.174;2023-04-23T01:39:57;97062.00;;;14.76;91.63
19884;BME280;10104;50.732;10.174;2023-04-23T01:42:18;97064.69;;;14.76;91.40
19884;BME280;10104;50.732;10.174;2023-04-23T01:44:40;97059.59;;;14.75;91.58
19884;BME280;10104;50.732;10.174;2023-04-23T01:47:02;97059.44;;;14.81;91.25
19884;BME280;10104;50.732;10.174;2023-04-23T01:49:27;97062.44;;;14.96;90.28
19884;BME280;10104;50.732;10.174;2023-04-23T01:51:48;97055.34;;;15.02;89.80
19884;BME280;10104;50.732;10.174;2023-04-23T01:54:10;97056.97;;;15.03;90.03
19884;BME280;10104;50.732;10.174;2023-04-23T01:56:31;97059.63;;;15.03;89.86
19884;BME280;10104;50.732;10.174;2023-04-23T01:58:55;97060.50;;;14.92;90.87
19884;BME280;10104;50.732;10.174;2023-04-23T02:01:17;97060.25;;;14.82;91.43
19884;BME280;10104;50.732;10.174;2023-04-23T02:03:38;97060.00;;;14.95;90.98
19884;BME280;10104;50.732;10.174;2023-04-23T02:06:00;97062.50;;;14.73;91.73
19884;BME280;10104;50.732;10.174;2023-04-23T02:08:22;97063.53;;;14.72;92.63
19884;BME280;10104;50.732;10.174;2023-04-23T02:10:43;97061.00;;;14.54;93.70
19884;BME280;10104;50.732;10.174;2023-04-23T02:13:05;97060.81;;;14.44;94.79
19884;BME280;10104;50.732;10.174;2023-04-23T02:15:27;97063.56;;;14.49;95.05
19884;BME280;10104;50.732;10.174;2023-04-23T02:17:49;97061.09;;;14.71;93.37
19884;BME280;10104;50.732;10.174;2023-04-23T02:20:13;97064.00;;;14.69;94.33
19884;BME280;10104;50.732;10.174;2023-04-23T02:22:39;97059.59;;;14.63;94.21
19884;BME280;10104;50.732;10.174;2023-04-23T02:25:01;97060.09;;;14.60;94.49
19884;BME280;10104;50.732;10.174;2023-04-23T02:27:23;97057.75;;;14.64;95.01
19884;BME280;10104;50.732;10.174;2023-04-23T02:29:45;97054.41;;;14.45;96.74
19884;BME280;10104;50.732;10.174;2023-04-23T02:32:06;97053.50;;;14.39;97.31
19884;BME280;10104;50.732;10.174;2023-04-23T02:34:28;97058.38;;;14.42;96.91
19884;BME280;10104;50.732;10.174;2023-04-23T02:36:49;97052.69;;;14.62;95.70
19884;BME280;10104;50.732;10.174;2023-04-23T02:39:11;97051.16;;;14.54;95.96
19884;BME280;10104;50.732;10.174;2023-04-23T02:41:32;97052.91;;;14.49;96.74
19884;BME280;10104;50.732;10.174;2023-04-23T02:43:54;97052.81;;;14.44;97.23
19884;BME280;10104;50.732;10.174;2023-04-23T02:46:15;97053.97;;;14.48;96.85
19884;BME280;10104;50.732;10.174;2023-04-23T02:48:39;97056.16;;;14.63;95.36
19884;BME280;10104;50.732;10.174;2023-04-23T02:51:01;97054.28;;;14.63;95.61
19884;BME280;10104;50.732;10.174;2023-04-23T02:53:23;97048.84;;;14.58;95.67
19884;BME280;10104;50.732;10.174;2023-04-23T02:55:45;97056.50;;;14.43;96.83
19884;BME280;10104;50.732;10.174;2023-04-23T02:58:06;97055.78;;;14.36;96.67
19884;BME280;10104;50.732;10.174;2023-04-23T03:00:28;97058.13;;;14.44;96.42
19884;BME280;10104;50.732;10.174;2023-04-23T03:02:49;97054.50;;;14.27;97.75
19884;BME280;10104;50.732;10.174;2023-04-23T03:05:11;97052.44;;;14.29;97.47
19884;BME280;10104;50.732;10.174;2023-04-23T03:07:33;97063.66;;;14.31;98.02
19884;BME280;10104;50.732;10.174;2023-04-23T03:09:54;97058.69;;;14.11;99.36
19884;BME280;10104;50.732;10.174;2023-04-23T03:12:15;97064.00;;;13.99;100.00
19884;BME280;10104;50.732;10.174;2023-04-23T03:14:38;97061.88;;;13.78;100.00
19884;BME280;10104;50.732;10.174;2023-04-23T03:17:00;97062.13;;;13.88;100.00
19884;BME280;10104;50.732;10.174;2023-04-23T03:19:21;97068.00;;;13.78;100.00
19884;BME280;10104;50.732;10.174;2023-04-23T03:21:43;97064.78;;;13.88;100.00
19884;BME280;10104;50.732;10.174;2023-04-23T03:24:05;97061.44;;;13.81;100.00
19884;BME280;10104;50.732;10.174;2023-04-23T03:26:26;97066.75;;;13.81;100.00
19884;BME280;10104;50.732;10.174;2023-04-23T03:28:48;97075.53;;;13.70;100.00
19884;BME280;10104;50.732;10.174;2023-04-23T03:31:09;97069.22;;;13.53;100.00
19884;BME280;10104;50.732;10.174;2023-04-23T03:33:31;97069.47;;;13.51;100.00
19884;BME280;10104;50.732;10.174;2023-04-23T03:35:52;97072.44;;;13.43;100.00
19884;BME280;10104;50.732;10.174;2023-04-23T03:38:14;97080.84;;;13.40;100.00
19884;BME280;10104;50.732;10.174;2023-04-23T03:40:35;97075.53;;;13.40;100.00
19884;BME280;10104;50.732;10.174;2023-04-23T03:42:57;97073.50;;;13.24;100.00
19884;BME280;10104;50.732;10.174;2023-04-23T03:45:20;97084.72;;;13.26;100.00
19884;BME280;10104;50.732;10.174;2023-04-23T03:47:42;97078.22;;;13.22;100.00
19884;BME280;10104;50.732;10.174;2023-04-23T03:50:05;97077.88;;;13.18;100.00
19884;BME280;10104;50.732;10.174;2023-04-23T03:52:27;97084.09;;;13.12;100.00
19884;BME280;10104;50.732;10.174;2023-04-23T03:54:49;97080.41;;;13.13;100.00
19884;BME280;10104;50.732;10.174;2023-04-23T03:57:10;97082.25;;;13.13;100.00
19884;BME280;10104;50.732;10.174;2023-04-23T03:59:34;97080.41;;;13.13;100.00
19884;BME280;10104;50.732;10.174;2023-04-23T04:01:56;97079.03;;;13.22;100.00
19884;BME280;10104;50.732;10.174;2023-04-23T04:04:18;97083.69;;;13.27;100.00
19884;BME280;10104;50.732;10.174;2023-04-23T04:06:40;97087.63;;;13.24;100.00
19884;BME280;10104;50.732;10.174;2023-04-23T04:09:02;97087.91;;;13.16;100.00
19884;BME280;10104;50.732;10.174;2023-04-23T04:11:23;97097.06;;;13.02;100.00
19884;BME280;10104;50.732;10.174;2023-04-23T04:13:45;97102.69;;;12.94;100.00
19884;BME280;10104;50.732;10.174;2023-04-23T04:16:06;97106.59;;;12.91;100.00
19884;BME280;10104;50.732;10.174;2023-04-23T04:18:28;97115.22;;;12.87;100.00
19884;BME280;10104;50.732;10.174;2023-04-23T04:20:49;97118.56;;;12.82;100.00
19884;BME280;10104;50.732;10.174;2023-04-23T04:23:12;97110.94;;;12.68;100.00
19884;BME280;10104;50.732;10.174;2023-04-23T04:25:34;97118.91;;;12.68;100.00
19884;BME280;10104;50.732;10.174;2023-04-23T04:28:00;97122.59;;;12.67;100.00
19884;BME280;10104;50.732;10.174;2023-04-23T04:30:22;97124.13;;;12.56;100.00
19884;BME280;10104;50.732;10.174;2023-04-23T04:32:44;97120.25;;;12.59;100.00
19884;BME280;10104;50.732;10.174;2023-04-23T04:35:07;97128.19;;;12.59;100.00
19884;BME280;10104;50.732;10.174;2023-04-23T04:37:33;97131.72;;;12.52;100.00
19884;BME280;10104;50.732;10.174;2023-04-23T04:39:55;97131.50;;;12.54;100.00
19884;BME280;10104;50.732;10.174;2023-04-23T04:42:17;97132.91;;;12.56;100.00
19884;BME280;10104;50.732;10.174;2023-04-23T04:44:42;97143.38;;;12.51;100.00
19884;BME280;10104;50.732;10.174;2023-04-23T04:47:04;97153.03;;;12.46;100.00
19884;BME280;10104;50.732;10.174;2023-04-23T04:49:28;97157.59;;;12.39;100.00
19884;BME280;10104;50.732;10.174;2023-04-23T04:51:49;97161.97;;;12.27;100.00
19884;BME280;10104;50.732;10.174;2023-04-23T04:54:11;97161.16;;;12.26;100.00
19884;BME280;10104;50.732;10.174;2023-04-23T04:56:33;97158.25;;;12.09;100.00
19884;BME280;10104;50.732;10.174;2023-04-23T04:58:55;97157.38;;;12.15;100.00
19884;BME280;10104;50.732;10.174;2023-04-23T05:01:17;97159.69;;;12.05;100.00
19884;BME280;10104;50.732;10.174;2023-04-23T05:03:38;97157.63;;;12.07;100.00
19884;BME280;10104;50.732;10.174;2023-04-23T05:06:00;97165.53;;;12.14;100.00
19884;BME280;10104;50.732;10.174;2023-04-23T05:08:21;97166.56;;;12.13;100.00
19884;BME280;10104;50.732;10.174;2023-04-23T05:10:43;97161.69;;;12.10;99.60
19884;BME280;10104;50.732;10.174;2023-04-23T05:13:05;97163.09;;;12.12;100.00
19884;BME280;10104;50.732;10.174;2023-04-23T05:15:26;97152.84;;;12.16;100.00
19884;BME280;10104;50.732;10.174;2023-04-23T05:17:48;97159.16;;;12.22;100.00
19884;BME280;10104;50.732;10.174;2023-04-23T05:20:13;97153.63;;;12.23;100.00
19884;BME280;10104;50.732;10.174;2023-04-23T05:22:39;97151.50;;;12.32;99.19
19884;BME280;10104;50.732;10.174;2023-04-23T05:25:02;97151.47;;;12.38;98.89
19884;BME280;10104;50.732;10.174;2023-04-23T05:27:24;97162.25;;;12.43;97.75
19884;BME280;10104;50.732;10.174;2023-04-23T05:29:46;97167.91;;;12.47;96.70
19884;BME280;10104;50.732;10.174;2023-04-23T05:32:07;97161.63;;;12.66;95.40
19884;BME280;10104;50.732;10.174;2023-04-23T05:34:29;97166.66;;;12.74;94.64
19884;BME280;10104;50.732;10.174;2023-04-23T05:36:50;97163.13;;;12.80;94.48
19884;BME280;10104;50.732;10.174;2023-04-23T05:39:12;97167.94;;;13.08;93.12
19884;BME280;10104;50.732;10.174;2023-04-23T05:41:33;97166.47;;;13.30;90.84
19884;BME280;10104;50.732;10.174;2023-04-23T05:43:55;97173.03;;;13.46;90.77
19884;BME280;10104;50.732;10.174;2023-04-23T05:46:17;97176.13;;;13.43;89.93
19884;BME280;10104;50.732;10.174;2023-04-23T05:48:39;97166.06;;;13.63;89.70
19884;BME280;10104;50.732;10.174;2023-04-23T05:51:00;97163.16;;;13.95;89.15
19884;BME280;10104;50.732;10.174;2023-04-23T05:53:22;97170.94;;;14.08;88.63
19884;BME280;10104;50.732;10.174;2023-04-23T05:55:43;97172.56;;;14.09;87.27
19884;BME280;10104;50.732;10.174;2023-04-23T05:58:05;97175.72;;;14.17;88.53
19884;BME280;10104;50.732;10.174;2023-04-23T06:00:27;97178.81;;;14.14;87.92
19884;BME280;10104;50.732;10.174;2023-04-23T06:02:48;97169.47;;;14.24;88.96
19884;BME280;10104;50.732;10.174;2023-04-23T06:05:10;97170.13;;;14.37;87.79
19884;BME280;10104;50.732;10.174;2023-04-23T06:07:32;97168.38;;;14.43;87.30
19884;BME280;10104;50.732;10.174;2023-04-23T06:09:54;97174.59;;;14.37;88.97
19884;BME280;10104;50.732;10.174;2023-04-23T06:12:16;97179.28;;;14.53;88.35
19884;BME280;10104;50.732;10.174;2023-04-23T06:14:38;97177.66;;;14.75;87.29
19884;BME280;10104;50.732;10.174;2023-04-23T06:17:00;97174.19;;;14.98;86.47
19884;BME280;10104;50.732;10.174;2023-04-23T06:19:21;97174.31;;;14.91;86.22
19884;BME280;10104;50.732;10.174;2023-04-23T06:21:45;97180.06;;;15.00;85.35
19884;BME280;10104;50.732;10.174;2023-04-23T06:24:07;97177.84;;;15.20;84.89
19884;BME280;10104;50.732;10.174;2023-04-23T06:26:28;97182.16;;;15.21;83.65
19884;BME280;10104;50.732;10.174;2023-04-23T06:28:52;97178.72;;;15.37;83.03
19884;BME280;10104;50.732;10.174;2023-04-23T06:31:14;97182.25;;;15.26;82.93
19884;BME280;10104;50.732;10.174;2023-04-23T06:33:36;97186.19;;;15.35;82.93
19884;BME280;10104;50.732;10.174;2023-04-23T06:35:57;97176.34;;;15.24;82.13
19884;BME280;10104;50.732;10.174;2023-04-23T06:38:19;97186.47;;;14.99;83.32
19884;BME280;10104;50.732;10.174;2023-04-23T06:40:43;97174.88;;;14.93;84.42
19884;BME280;10104;50.732;10.174;2023-04-23T06:43:04;97180.19;;;14.58;86.41
19884;BME280;10104;50.732;10.174;2023-04-23T06:45:28;97176.06;;;14.63;87.05
19884;BME280;10104;50.732;10.174;2023-04-23T06:47:52;97179.28;;;14.65;85.77
19884;BME280;10104;50.732;10.174;2023-04-23T06:50:13;97173.50;;;14.56;85.45
19884;BME280;10104;50.732;10.174;2023-04-23T06:52:35;97172.38;;;14.34;86.79
19884;BME280;10104;50.732;10.174;2023-04-23T06:54:57;97181.75;;;14.25;87.69
19884;BME280;10104;50.732;10.174;2023-04-23T06:57:18;97179.75;;;14.50;86.36
19884;BME280;10104;50.732;10.174;2023-04-23T06:59:40;97177.75;;;14.45;84.81
19884;BME280;10104;50.732;10.174;2023-04-23T07:02:01;97170.94;;;14.38;86.06
19884;BME280;10104;50.732;10.174;2023-04-23T07:04:22;97178.28;;;14.24;88.34
19884;BME280;10104;50.732;10.174;2023-04-23T07:06:44;97186.34;;;14.47;86.39
19884;BME280;10104;50.732;10.174;2023-04-23T07:09:06;97179.28;;;14.65;83.89
19884;BME280;10104;50.732;10.174;2023-04-23T07:11:27;97176.63;;;14.65;82.92
19884;BME280;10104;50.732;10.174;2023-04-23T07:13:51;97177.88;;;14.50;83.26
19884;BME280;10104;50.732;10.174;2023-04-23T07:16:12;97171.72;;;14.38;86.24
19884;BME280;10104;50.732;10.174;2023-04-23T07:18:34;97174.59;;;14.37;83.84
19884;BME280;10104;50.732;10.174;2023-04-23T07:20:55;97167.81;;;14.52;84.55
19884;BME280;10104;50.732;10.174;2023-04-23T07:23:17;97172.91;;;14.54;85.37
19884;BME280;10104;50.732;10.174;2023-04-23T07:25:38;97158.53;;;14.78;84.59
19884;BME280;10104;50.732;10.174;2023-04-23T07:28:00;97165.84;;;14.83;83.54
19884;BME280;10104;50.732;10.174;2023-04-23T07:30:23;97171.16;;;14.60;83.16
19884;BME280;10104;50.732;10.174;2023-04-23T07:32:45;97167.78;;;14.87;80.92
19884;BME280;10104;50.732;10.174;2023-04-23T07:35:07;97167.91;;;14.69;82.02
19884;BME280;10104;50.732;10.174;2023-04-23T07:37:30;97164.81;;;14.72;85.19
19884;BME280;10104;50.732;10.174;2023-04-23T07:39:52;97169.19;;;14.78;82.26
19884;BME280;10104;50.732;10.174;2023-04-23T07:42:14;97165.25;;;14.92;81.22
19884;BME280;10104;50.732;10.174;2023-04-23T07:44:35;97163.28;;;15.11;80.27
19884;BME280;10104;50.732;10.174;2023-04-23T07:46:57;97165.44;;;15.26;73.12
19884;BME280;10104;50.732;10.174;2023-04-23T07:49:18;97172.72;;;15.42;78.38
19884;BME280;10104;50.732;10.174;2023-04-23T07:51:40;97175.25;;;15.49;71.11
19884;BME280;10104;50.732;10.174;2023-04-23T07:54:02;97175.47;;;15.59;75.84
19884;BME280;10104;50.732;10.174;2023-04-23T07:56:23;97165.19;;;15.79;76.93
19884;BME280;10104;50.732;10.174;2023-04-23T07:58:45;97166.13;;;16.18;72.94
19884;BME280;10104;50.732;10.174;2023-04-23T08:01:06;97156.91;;;16.42;73.22
19884;BME280;10104;50.732;10.174;2023-04-23T08:03:28;97161.69;;;16.24;68.88
19884;BME280;10104;50.732;10.174;2023-04-23T08:05:50;97157.00;;;16.31;65.73
19884;BME280;10104;50.732;10.174;2023-04-23T08:08:11;97152.06;;;16.39;64.68
19884;BME280;10104;50.732;10.174;2023-04-23T08:10:34;97160.25;;;16.33;65.04
19884;BME280;10104;50.732;10.174;2023-04-23T08:12:55;97158.66;;;16.65;65.09
19884;BME280;10104;50.732;10.174;2023-04-23T08:15:17;97156.19;;;16.80;65.65
19884;BME280;10104;50.732;10.174;2023-04-23T08:17:38;97157.16;;;16.57;61.78
19884;BME280;10104;50.732;10.174;2023-04-23T08:20:00;97159.13;;;16.62;63.02
19884;BME280;10104;50.732;10.174;2023-04-23T08:22:22;97152.56;;;17.08;62.51
19884;BME280;10104;50.732;10.174;2023-04-23T08:24:43;97166.25;;;17.12;64.54
19884;BME280;10104;50.732;10.174;2023-04-23T08:27:06;97170.03;;;16.94;58.81
19884;BME280;10104;50.732;10.174;2023-04-23T08:29:28;97165.72;;;16.93;58.22
19884;BME280;10104;50.732;10.174;2023-04-23T08:31:49;97159.59;;;17.36;59.05
19884;BME280;10104;50.732;10.174;2023-04-23T08:34:11;97164.03;;;17.25;60.79
19884;BME280;10104;50.732;10.174;2023-04-23T08:36:32;97159.91;;;16.96;63.67
19884;BME280;10104;50.732;10.174;2023-04-23T08:38:54;97151.59;;;16.97;60.59
19884;BME280;10104;50.732;10.174;2023-04-23T08:41:17;97154.66;;;16.68;55.23
19884;BME280;10104;50.732;10.174;2023-04-23T08:43:46;97148.63;;;17.16;57.94
19884;BME280;10104;50.732;10.174;2023-04-23T08:46:12;97140.06;;;16.75;55.47
19884;BME280;10104;50.732;10.174;2023-04-23T08:48:35;97135.56;;;16.97;58.08
19884;BME280;10104;50.732;10.174;2023-04-23T08:50:58;97146.53;;;17.18;59.32
19884;BME280;10104;50.732;10.174;2023-04-23T08:53:24;97142.44;;;17.32;55.96
19884;BME280;10104;50.732;10.174;2023-04-23T08:55:48;97141.50;;;17.21;56.07
19884;BME280;10104;50.732;10.174;2023-04-23T08:58:11;97151.03;;;17.34;57.97
19884;BME280;10104;50.732;10.174;2023-04-23T09:00:32;97135.75;;;17.34;56.50
19884;BME280;10104;50.732;10.174;2023-04-23T09:02:55;97129.41;;;17.40;55.31
19884;BME280;10104;50.732;10.174;2023-04-23T09:05:17;97129.44;;;17.62;58.10
19884;BME280;10104;50.732;10.174;2023-04-23T09:07:39;97134.78;;;17.62;58.07
19884;BME280;10104;50.732;10.174;2023-04-23T09:10:03;97125.38;;;18.13;57.83
19884;BME280;10104;50.732;10.174;2023-04-23T09:12:25;97133.44;;;17.87;57.09
19884;BME280;10104;50.732;10.174;2023-04-23T09:14:48;97146.63;;;17.93;56.03
19884;BME280;10104;50.732;10.174;2023-04-23T09:17:10;97141.88;;;18.64;54.04
19884;BME280;10104;50.732;10.174;2023-04-23T09:19:32;97140.53;;;19.09;51.83
19884;BME280;10104;50.732;10.174;2023-04-23T09:21:53;97142.16;;;19.62;51.11
19884;BME280;10104;50.732;10.174;2023-04-23T09:24:15;97133.53;;;19.60;49.64
19884;BME280;10104;50.732;10.174;2023-04-23T09:26:45;97143.59;;;20.05;50.71
19884;BME280;10104;50.732;10.174;2023-04-23T09:29:12;97119.44;;;20.35;51.46
19884;BME280;10104;50.732;10.174;2023-04-23T09:31:33;97120.22;;;20.15;49.97
19884;BME280;10104;50.732;10.174;2023-04-23T09:33:55;97119.66;;;19.98;47.44
19884;BME280;10104;50.732;10.174;2023-04-23T09:36:20;97120.13;;;19.75;49.41
19884;BME280;10104;50.732;10.174;2023-04-23T09:38:42;97112.63;;;19.82;49.88
19884;BME280;10104;50.732;10.174;2023-04-23T09:41:23;97117.53;;;20.05;48.91
19884;BME280;10104;50.732;10.174;2023-04-23T09:43:46;97118.59;;;20.19;48.52
19884;BME280;10104;50.732;10.174;2023-04-23T09:46:09;97112.72;;;20.53;48.10
19884;BME280;10104;50.732;10.174;2023-04-23T09:48:40;97104.38;;;20.39;46.73
19884;BME280;10104;50.732;10.174;2023-04-23T09:51:02;97105.97;;;20.66;46.58
19884;BME280;10104;50.732;10.174;2023-04-23T09:53:25;97105.94;;;20.71;45.83
19884;BME280;10104;50.732;10.174;2023-04-23T09:55:46;97102.06;;;21.12;46.70
19884;BME280;10104;50.732;10.174;2023-04-23T09:58:13;97101.47;;;21.41;45.25
19884;BME280;10104;50.732;10.174;2023-04-23T10:00:37;97104.47;;;21.29;45.84
19884;BME280;10104;50.732;10.174;2023-04-23T10:02:59;97094.81;;;21.18;45.84
19884;BME280;10104;50.732;10.174;2023-04-23T10:05:22;97101.59;;;21.64;47.05
19884;BME280;10104;50.732;10.174;2023-04-23T10:07:49;97081.72;;;21.94;45.30
19884;BME280;10104;50.732;10.174;2023-04-23T10:10:14;97081.16;;;22.36;44.85
19884;BME280;10104;50.732;10.174;2023-04-23T10:12:36;97077.47;;;22.22;45.78
19884;BME280;10104;50.732;10.174;2023-04-23T10:15:15;97091.16;;;22.02;43.06
19884;BME280;10104;50.732;10.174;2023-04-23T10:17:38;97081.38;;;21.62;42.46
19884;BME280;10104;50.732;10.174;2023-04-23T10:20:00;97084.50;;;21.84;43.40
19884;BME280;10104;50.732;10.174;2023-04-23T10:22:23;97071.06;;;21.74;43.36
19884;BME280;10104;50.732;10.174;2023-04-23T10:24:51;97080.53;;;21.71;42.52
19884;BME280;10104;50.732;10.174;2023-04-23T10:27:15;97077.81;;;21.27;41.33
19884;BME280;10104;50.732;10.174;2023-04-23T10:29:58;97075.22;;;20.97;43.46
19884;BME280;10104;50.732;10.174;2023-04-23T10:32:20;97079.75;;;21.17;46.25
19884;BME280;10104;50.732;10.174;2023-04-23T10:34:42;97065.19;;;21.13;44.83
19884;BME280;10104;50.732;10.174;2023-04-23T10:37:04;97067.34;;;21.70;43.89
19884;BME280;10104;50.732;10.174;2023-04-23T10:39:31;97074.88;;;21.14;42.70
19884;BME280;10104;50.732;10.174;2023-04-23T10:41:54;97071.00;;;20.66;43.21
19884;BME280;10104;50.732;10.174;2023-04-23T10:44:16;97066.94;;;20.63;43.75
19884;BME280;10104;50.732;10.174;2023-04-23T10:47:02;97068.03;;;20.67;44.83
19884;BME280;10104;50.732;10.174;2023-04-23T10:49:24;97059.09;;;20.82;43.31
19884;BME280;10104;50.732;10.174;2023-04-23T10:51:46;97058.13;;;21.32;42.39
19884;BME280;10104;50.732;10.174;2023-04-23T10:54:15;97063.28;;;21.28;42.65
19884;BME280;10104;50.732;10.174;2023-04-23T10:56:37;97055.53;;;21.02;41.84
19884;BME280;10104;50.732;10.174;2023-04-23T10:58:59;97046.09;;;21.09;41.35
19884;BME280;10104;50.732;10.174;2023-04-23T11:01:27;97041.09;;;20.72;43.19
19884;BME280;10104;50.732;10.174;2023-04-23T11:03:51;97047.50;;;20.96;43.61
19884;BME280;10104;50.732;10.174;2023-04-23T11:06:19;97047.47;;;21.02;43.46
19884;BME280;10104;50.732;10.174;2023-04-23T11:08:55;97050.50;;;20.80;42.16
19884;BME280;10104;50.732;10.174;2023-04-23T11:11:17;97044.91;;;20.26;43.71
19884;BME280;10104;50.732;10.174;2023-04-23T11:13:49;97042.25;;;20.20;42.80
19884;BME280;10104;50.732;10.174;2023-04-23T11:16:15;97039.84;;;20.24;44.34
19884;BME280;10104;50.732;10.174;2023-04-23T11:19:07;97036.50;;;20.83;47.40
19884;BME280;10104;50.732;10.174;2023-04-23T11:21:54;97032.44;;;20.90;45.06
19884;BME280;10104;50.732;10.174;2023-04-23T11:24:16;97028.13;;;20.89;43.34
19884;BME280;10104;50.732;10.174;2023-04-23T11:26:38;97034.25;;;21.10;44.75
19884;BME280;10104;50.732;10.174;2023-04-23T11:29:02;97028.25;;;21.23;43.25
19884;BME280;10104;50.732;10.174;2023-04-23T11:31:25;97021.25;;;21.66;43.56
19884;BME280;10104;50.732;10.174;2023-04-23T11:33:47;97021.34;;;21.56;39.25
19884;BME280;10104;50.732;10.174;2023-04-23T11:36:08;97021.16;;;21.43;40.94
19884;BME280;10104;50.732;10.174;2023-04-23T11:38:31;97013.56;;;21.50;39.91
19884;BME280;10104;50.732;10.174;2023-04-23T11:40:53;97004.66;;;21.54;40.02
19884;BME280;10104;50.732;10.174;2023-04-23T11:43:18;96996.56;;;21.54;37.24
19884;BME280;10104;50.732;10.174;2023-04-23T11:45:41;96998.66;;;22.01;39.71
19884;BME280;10104;50.732;10.174;2023-04-23T11:48:03;96997.63;;;22.26;39.50
19884;BME280;10104;50.732;10.174;2023-04-23T11:50:31;96997.03;;;22.29;38.95
19884;BME280;10104;50.732;10.174;2023-04-23T11:52:54;96984.91;;;22.32;38.73
19884;BME280;10104;50.732;10.174;2023-04-23T11:55:16;96985.09;;;22.40;39.48
19884;BME280;10104;50.732;10.174;2023-04-23T11:57:45;96988.44;;;22.27;37.71
19884;BME280;10104;50.732;10.174;2023-04-23T12:00:17;96992.72;;;22.28;38.38
19884;BME280;10104;50.732;10.174;2023-04-23T12:03:03;96977.50;;;22.66;37.46
19884;BME280;10104;50.732;10.174;2023-04-23T12:05:28;96981.13;;;22.80;38.41
19884;BME280;10104;50.732;10.174;2023-04-23T12:07:50;96985.09;;;22.64;36.94
19884;BME280;10104;50.732;10.174;2023-04-23T12:10:16;96985.63;;;23.51;38.94
19884;BME280;10104;50.732;10.174;2023-04-23T12:12:38;96979.25;;;23.61;35.13
19884;BME280;10104;50.732;10.174;2023-04-23T12:15:04;96978.19;;;23.01;36.39
19884;BME280;10104;50.732;10.174;2023-04-23T12:17:26;96980.81;;;23.06;37.11
19884;BME280;10104;50.732;10.174;2023-04-23T12:19:47;96976.13;;;22.69;36.95
19884;BME280;10104;50.732;10.174;2023-04-23T12:22:10;96980.78;;;22.39;36.64
19884;BME280;10104;50.732;10.174;2023-04-23T12:24:50;96979.72;;;22.59;38.31